Main page
METAR-TAF:

METAR-TAF

Airports :

Mehrabad International Airport

Tehran, Iran

latitude: 35-41N, longitude: 051-21E, elevation: 1204 m

Current weather observation

The report was made 37 minutes ago, at 04:30 UTC
Wind 6 kt from the West
Temperature 24°C
Humidity 41%
Pressure 1013 hPa
Visibility: 8000 m

METAR: OIII 200430Z 28006KT 8000 NSC 24/10 Q1013 A2992

Time: 09:37 (05:07 UTC)

Forecast

The report was made 6 hours and 7 minutes ago, at 23:00 UTC
Forecast valid from 20 at 00 UTC to 21 at 06 UTC
Wind 10 kt from the West/Northwest
Visibility 10 km or more
no clouds below 1500 m and no cumulonimbus
Temporary
from 20 at 18 UTC to 20 at 24 UTC
Wind 17 kt from the Northwest
Visibility: 5000 m
sand

TAF: OIII 192300Z 2000/2106 30005MPS CAVOK TEMPO 2018/2024 32009MPS 5000 SA

Weather observations and forecasts of more than 4000 airports (METAR and TAF reports).

The available stations are represented by yellow and red dots on the map.

Hover mouse over dot to see the name of the station.

Then click to see weather observations and forecasts.

To change the map : click on the green buttons with a black cross to zoom in, on the green button with a dash to zoom out, or on the green arrows for adjacent maps.


METAR-TAF: